createdAt,value
2022-08-12T00:02:03.737Z,2.40
2022-08-12T00:12:25.677Z,2.05
2022-08-12T00:22:58.955Z,1.92
2022-08-12T00:33:22.118Z,2.13
2022-08-12T00:43:24.712Z,2.47
2022-08-12T00:53:28.009Z,2.13
2022-08-12T01:03:53.662Z,1.98
2022-08-12T01:13:57.246Z,1.80
2022-08-12T01:24:31.001Z,2.22
2022-08-12T01:34:38.728Z,1.70
2022-08-12T01:44:40.652Z,2.28
2022-08-12T01:54:44.584Z,1.55
2022-08-12T02:05:14.909Z,1.70
2022-08-12T02:15:27.148Z,2.03
2022-08-12T02:25:43.364Z,1.70
2022-08-12T02:35:45.110Z,1.92
2022-08-12T02:45:57.192Z,2.10
2022-08-12T02:56:03.282Z,1.70
2022-08-12T03:06:13.360Z,4.18
2022-08-12T03:16:14.982Z,3.03
2022-08-12T03:26:17.498Z,5.85
2022-08-12T03:36:20.737Z,5.07
2022-08-12T03:46:52.008Z,7.30
2022-08-12T03:57:12.118Z,6.13
2022-08-12T04:07:16.252Z,4.70
2022-08-12T04:17:18.736Z,4.63
2022-08-12T04:27:20.241Z,6.00
2022-08-12T04:37:21.892Z,6.22
2022-08-12T04:47:23.425Z,4.88
2022-08-12T04:57:24.989Z,5.45
2022-08-12T05:07:27.665Z,4.97
2022-08-12T05:17:29.518Z,5.22
2022-08-12T05:27:31.854Z,5.10
2022-08-12T05:37:34.748Z,4.63
2022-08-12T05:47:48.698Z,3.95
2022-08-12T05:57:55.676Z,3.75
2022-08-12T06:08:01.616Z,4.65
2022-08-12T06:18:16.235Z,5.55
2022-08-12T06:28:20.242Z,3.60
2022-08-12T06:38:48.764Z,3.08
2022-08-12T06:48:57.179Z,5.07
2022-08-12T06:58:58.689Z,2.70
2022-08-12T07:09:00.203Z,3.35
2022-08-12T07:19:04.200Z,1.83
2022-08-12T07:29:05.873Z,3.72
2022-08-12T07:39:07.606Z,3.28
2022-08-12T07:49:15.253Z,4.47
2022-08-12T07:59:16.998Z,2.90
2022-08-12T08:09:21.251Z,2.20
2022-08-12T08:19:23.869Z,3.77
2022-08-12T08:29:25.840Z,2.40
2022-08-12T08:39:28.164Z,2.28
2022-08-12T08:49:29.767Z,2.70
2022-08-12T08:59:31.635Z,4.30
2022-08-12T09:10:02.272Z,2.97
2022-08-12T09:19:59.043Z,5.53
2022-08-12T09:30:10.745Z,3.63
2022-08-12T09:41:01.962Z,2.58
2022-08-12T09:50:39.478Z,2.90
2022-08-12T10:00:51.859Z,2.70
2022-08-12T10:11:18.585Z,2.80
2022-08-12T10:21:37.207Z,1.98
2022-08-12T10:32:19.478Z,4.15
2022-08-12T10:42:29.130Z,3.25
2022-08-12T10:52:34.778Z,4.72
2022-08-12T11:04:18.803Z,3.10
2022-08-12T11:13:12.374Z,2.50
2022-08-12T11:23:35.707Z,2.28
2022-08-12T11:34:04.920Z,2.65
2022-08-12T11:43:58.327Z,3.65
2022-08-12T11:54:01.492Z,2.53
2022-08-12T12:04:03.238Z,2.40
2022-08-12T12:14:08.062Z,3.20
2022-08-12T12:24:12.660Z,2.78
2022-08-12T12:34:30.231Z,1.90
2022-08-12T12:44:41.894Z,2.15
2022-08-12T12:54:58.442Z,2.25
2022-08-12T13:05:00.102Z,3.42
2022-08-12T13:15:03.698Z,2.38
2022-08-12T13:25:05.448Z,1.92
2022-08-12T13:35:20.419Z,2.22
2022-08-12T13:45:34.521Z,2.13
2022-08-12T13:55:41.171Z,2.40
2022-08-12T14:05:43.981Z,2.22
2022-08-12T14:15:53.564Z,2.53
2022-08-12T14:25:59.585Z,2.17
2022-08-12T14:36:03.289Z,2.00
2022-08-12T14:46:08.434Z,2.38
2022-08-12T15:06:43.780Z,4.35
2022-08-12T15:16:53.957Z,3.05
2022-08-12T15:26:57.577Z,2.60
2022-08-12T15:37:00.544Z,2.28
2022-08-12T15:47:02.986Z,2.20
2022-08-12T15:57:05.696Z,2.03
2022-08-12T16:17:14.857Z,1.83
2022-08-12T16:27:17.716Z,1.92
2022-08-12T16:37:21.110Z,3.13
2022-08-12T16:47:23.170Z,4.13
2022-08-12T16:57:34.871Z,2.05
2022-08-12T17:07:43.137Z,2.67
2022-08-12T17:17:46.407Z,2.35
2022-08-12T17:27:56.942Z,2.10
2022-08-12T17:38:05.200Z,1.88
2022-08-12T17:48:09.541Z,2.58
2022-08-12T17:58:13.946Z,2.17
2022-08-12T18:08:15.932Z,2.05
2022-08-12T18:18:19.670Z,2.25
2022-08-12T18:28:27.444Z,2.28
2022-08-12T18:38:31.423Z,1.77
2022-08-12T18:48:33.606Z,2.58
2022-08-12T18:58:38.334Z,1.85
2022-08-12T19:08:59.804Z,1.90
2022-08-12T19:19:03.336Z,1.67
2022-08-12T19:29:07.486Z,1.55
2022-08-12T19:39:15.319Z,1.88
2022-08-12T19:49:25.297Z,1.83
2022-08-12T19:59:43.468Z,1.70
2022-08-12T20:09:57.373Z,1.83
2022-08-12T20:20:17.691Z,2.00
2022-08-12T20:30:52.305Z,1.70
2022-08-12T20:40:47.928Z,4.83
2022-08-12T20:50:53.541Z,1.60
2022-08-12T21:00:59.183Z,2.17
2022-08-12T21:11:02.305Z,3.20
2022-08-12T21:21:04.495Z,1.63
2022-08-12T21:32:37.613Z,1.85
2022-08-12T21:41:29.401Z,1.67
2022-08-12T21:51:49.670Z,1.95
2022-08-12T22:01:53.470Z,2.85
2022-08-12T22:11:59.935Z,1.40
2022-08-12T22:22:04.069Z,1.73
2022-08-12T22:42:28.713Z,1.98
2022-08-12T22:52:33.581Z,1.67
2022-08-12T23:02:35.148Z,1.90
2022-08-12T23:12:55.338Z,1.70
2022-08-12T23:23:05.826Z,1.73
2022-08-12T23:33:13.248Z,1.70
2022-08-12T23:43:25.678Z,1.88
2022-08-12T23:53:32.378Z,1.90
